createdAt,value
2023-04-17T00:01:26.072Z,16.63
2023-04-17T00:03:53.148Z,17.17
2023-04-17T00:06:20.170Z,17.17
2023-04-17T00:08:46.989Z,16.75
2023-04-17T00:11:13.634Z,17.13
2023-04-17T00:13:40.368Z,17.30
2023-04-17T00:16:08.418Z,17.30
2023-04-17T00:18:35.148Z,17.48
2023-04-17T00:21:01.832Z,17.08
2023-04-17T00:23:28.552Z,17.42
2023-04-17T00:25:55.260Z,16.75
2023-04-17T00:28:21.967Z,17.10
2023-04-17T00:30:48.625Z,16.73
2023-04-17T00:33:15.783Z,15.77
2023-04-17T00:35:42.411Z,18.08
2023-04-17T00:38:09.396Z,17.00
2023-04-17T00:40:36.152Z,17.48
2023-04-17T00:43:03.593Z,17.75
2023-04-17T00:45:30.870Z,16.30
2023-04-17T00:47:58.050Z,16.45
2023-04-17T00:50:24.776Z,16.33
2023-04-17T00:52:51.970Z,16.83
2023-04-17T00:55:18.686Z,16.75
2023-04-17T00:57:45.463Z,16.25
2023-04-17T01:00:12.829Z,16.13
2023-04-17T01:02:39.630Z,16.98
2023-04-17T01:05:06.674Z,17.00
2023-04-17T01:07:33.333Z,16.65
2023-04-17T01:10:00.040Z,16.05
2023-04-17T01:12:26.967Z,16.15
2023-04-17T01:14:54.588Z,16.42
2023-04-17T01:17:21.955Z,16.40
2023-04-17T01:19:49.769Z,16.75
2023-04-17T01:22:16.733Z,16.98
2023-04-17T01:24:43.871Z,16.38
2023-04-17T01:27:13.770Z,15.88
2023-04-17T01:29:41.069Z,16.25
2023-04-17T01:32:08.029Z,16.92
2023-04-17T01:34:37.290Z,17.92
2023-04-17T01:37:04.276Z,17.33
2023-04-17T01:39:31.269Z,17.02
2023-04-17T01:41:57.917Z,17.77
2023-04-17T01:44:24.741Z,17.23
2023-04-17T01:46:51.554Z,15.77
2023-04-17T01:49:18.357Z,17.55
2023-04-17T01:51:44.996Z,16.48
2023-04-17T01:54:11.795Z,16.33
2023-04-17T01:56:38.512Z,16.52
2023-04-17T01:59:05.228Z,16.67
2023-04-17T02:01:32.055Z,16.52
2023-04-17T02:03:59.036Z,16.95
2023-04-17T02:06:27.489Z,15.82
2023-04-17T02:08:54.285Z,15.88
2023-04-17T02:11:21.178Z,16.23
2023-04-17T02:13:47.888Z,16.15
2023-04-17T02:16:14.693Z,15.85
2023-04-17T02:18:41.658Z,16.90
2023-04-17T02:21:09.813Z,17.08
2023-04-17T02:23:36.544Z,16.13
2023-04-17T02:26:03.288Z,17.00
2023-04-17T02:28:30.080Z,16.88
2023-04-17T02:30:56.981Z,16.58
2023-04-17T02:33:23.841Z,16.15
2023-04-17T02:35:50.687Z,17.52
2023-04-17T02:39:00.236Z,17.38
2023-04-17T02:41:26.960Z,16.35
2023-04-17T02:43:53.652Z,16.35
2023-04-17T02:46:20.332Z,16.60
2023-04-17T02:48:47.133Z,15.75
2023-04-17T02:51:13.829Z,15.98
2023-04-17T02:53:41.328Z,16.58
2023-04-17T02:56:08.038Z,15.45
2023-04-17T02:58:34.717Z,15.45
2023-04-17T03:01:02.874Z,17.55
2023-04-17T03:03:31.273Z,16.63
2023-04-17T03:05:58.086Z,15.63
2023-04-17T03:08:24.916Z,17.98
2023-04-17T03:10:51.526Z,16.67
2023-04-17T03:13:18.404Z,17.08
2023-04-17T03:15:45.029Z,16.48
2023-04-17T03:18:11.761Z,17.20
2023-04-17T03:20:38.391Z,16.27
2023-04-17T03:23:05.094Z,17.02
2023-04-17T03:25:31.720Z,16.83
2023-04-17T03:27:58.451Z,17.42
2023-04-17T03:30:25.314Z,17.90
2023-04-17T03:32:52.046Z,18.17
2023-04-17T03:35:18.873Z,17.85
2023-04-17T03:37:45.578Z,17.10
2023-04-17T03:40:12.462Z,17.98
2023-04-17T03:42:39.156Z,17.63
2023-04-17T03:45:06.617Z,17.33
2023-04-17T03:47:33.329Z,17.88
2023-04-17T03:50:00.095Z,18.05
2023-04-17T03:52:26.895Z,16.40
2023-04-17T03:54:53.568Z,17.13
2023-04-17T03:57:20.422Z,17.48
2023-04-17T03:59:47.192Z,18.05
2023-04-17T04:02:14.449Z,18.40
2023-04-17T04:04:44.508Z,19.00
2023-04-17T04:07:11.180Z,20.10
2023-04-17T04:09:38.072Z,18.92
2023-04-17T04:12:04.843Z,17.85
2023-04-17T04:14:31.729Z,18.55
2023-04-17T04:17:01.754Z,17.85
2023-04-17T04:19:28.567Z,18.33
2023-04-17T04:21:55.609Z,19.67
2023-04-17T04:24:22.323Z,18.33
2023-04-17T04:26:49.825Z,20.92
2023-04-17T04:29:16.645Z,20.08
2023-04-17T04:31:46.869Z,19.08
2023-04-17T04:34:13.725Z,18.85
2023-04-17T04:36:49.981Z,19.30
2023-04-17T04:39:20.350Z,19.30
2023-04-17T04:41:50.906Z,20.60
2023-04-17T04:44:18.466Z,19.35
2023-04-17T04:46:45.760Z,19.75
2023-04-17T04:49:13.353Z,18.77
2023-04-17T04:51:40.086Z,19.17
2023-04-17T04:54:06.805Z,18.98
2023-04-17T04:56:33.519Z,19.25
2023-04-17T04:59:00.282Z,19.30
2023-04-17T05:01:28.008Z,19.13
2023-04-17T05:03:55.082Z,18.15
2023-04-17T05:06:21.910Z,17.02
2023-04-17T05:08:48.842Z,18.58
2023-04-17T05:11:15.873Z,17.85
2023-04-17T05:13:42.562Z,18.23
2023-04-17T05:16:09.349Z,17.90
2023-04-17T05:18:36.159Z,17.70
2023-04-17T05:21:02.904Z,17.80
2023-04-17T05:23:29.807Z,17.60
2023-04-17T05:25:56.470Z,18.08
2023-04-17T05:28:23.363Z,17.63
2023-04-17T05:30:52.328Z,17.35
2023-04-17T05:33:19.323Z,18.42
2023-04-17T05:35:46.919Z,18.00
2023-04-17T05:38:13.633Z,18.80
2023-04-17T05:40:40.398Z,18.17
2023-04-17T05:43:11.066Z,19.60
2023-04-17T05:45:38.204Z,19.10
2023-04-17T05:48:05.089Z,18.77
2023-04-17T05:50:31.763Z,18.98
2023-04-17T05:52:58.462Z,18.80
2023-04-17T05:55:25.143Z,17.60
2023-04-17T05:57:51.833Z,18.45
2023-04-17T06:00:18.876Z,18.08
2023-04-17T06:02:45.688Z,18.08
2023-04-17T06:05:12.951Z,18.08
2023-04-17T06:07:40.536Z,18.00
2023-04-17T06:10:09.026Z,19.35
2023-04-17T06:12:36.548Z,18.55
2023-04-17T06:15:04.441Z,17.25
2023-04-17T06:17:31.827Z,18.25
2023-04-17T06:19:58.483Z,16.98
2023-04-17T06:22:25.743Z,17.50
2023-04-17T06:24:52.477Z,18.52
2023-04-17T06:27:19.145Z,17.63
2023-04-17T06:29:46.197Z,16.67
2023-04-17T06:32:12.833Z,17.45
2023-04-17T06:34:48.885Z,16.80
2023-04-17T06:37:25.049Z,16.80
2023-04-17T06:39:51.763Z,17.35
2023-04-17T06:42:18.465Z,16.35
2023-04-17T06:44:45.284Z,16.42
2023-04-17T06:47:11.983Z,16.50
2023-04-17T06:49:38.663Z,17.33
2023-04-17T06:52:05.558Z,16.25
2023-04-17T06:54:32.984Z,16.90
2023-04-17T06:56:59.705Z,16.40
2023-04-17T06:59:26.546Z,16.70
2023-04-17T07:01:53.313Z,16.20
2023-04-17T07:04:21.180Z,17.98
2023-04-17T07:06:48.199Z,16.17
2023-04-17T07:09:15.067Z,17.33
2023-04-17T07:11:42.033Z,17.25
2023-04-17T07:14:10.311Z,16.42
2023-04-17T07:16:38.373Z,17.35
2023-04-17T07:19:05.148Z,15.38
2023-04-17T07:21:32.761Z,16.48
2023-04-17T07:23:59.603Z,16.73
2023-04-17T07:26:27.030Z,14.85
2023-04-17T07:28:53.932Z,15.40
2023-04-17T07:31:22.246Z,15.65
2023-04-17T07:33:49.678Z,14.45
2023-04-17T07:36:17.428Z,14.63
2023-04-17T07:38:44.355Z,15.02
2023-04-17T07:41:12.497Z,14.05
2023-04-17T07:43:39.298Z,15.35
2023-04-17T07:46:06.170Z,15.32
2023-04-17T07:48:33.319Z,13.30
2023-04-17T07:51:01.621Z,13.02
2023-04-17T07:53:29.177Z,13.80
2023-04-17T07:55:56.384Z,14.60
2023-04-17T07:58:24.306Z,13.80
2023-04-17T08:00:52.118Z,13.25
2023-04-17T08:03:24.562Z,13.30
2023-04-17T08:05:54.292Z,12.75
2023-04-17T08:08:47.787Z,13.10
2023-04-17T08:11:14.939Z,12.25
2023-04-17T08:13:41.963Z,11.55
2023-04-17T08:16:10.005Z,12.27
2023-04-17T08:18:37.903Z,10.57
2023-04-17T08:21:04.876Z,9.73
2023-04-17T08:23:31.586Z,9.90
2023-04-17T08:25:58.422Z,10.68
2023-04-17T08:28:25.255Z,10.70
2023-04-17T08:30:52.166Z,10.20
2023-04-17T08:33:18.918Z,9.63
2023-04-17T08:35:45.773Z,9.30
2023-04-17T08:38:14.674Z,10.25
2023-04-17T08:40:47.097Z,10.30
2023-04-17T08:43:19.596Z,8.95
2023-04-17T08:45:55.481Z,9.68
2023-04-17T08:48:23.384Z,9.45
2023-04-17T08:50:51.676Z,8.68
2023-04-17T08:53:19.080Z,8.23
2023-04-17T08:55:46.422Z,6.93
2023-04-17T08:58:14.669Z,6.18
2023-04-17T09:00:42.834Z,6.30
2023-04-17T09:03:13.922Z,6.30
2023-04-17T09:05:43.794Z,5.80
2023-04-17T09:08:26.198Z,6.72
2023-04-17T09:10:55.551Z,6.93
2023-04-17T09:13:25.186Z,6.35
2023-04-17T09:16:08.917Z,6.53
2023-04-17T09:18:36.791Z,6.13
2023-04-17T09:21:04.525Z,5.97
2023-04-17T09:23:51.886Z,5.63
2023-04-17T09:26:27.986Z,5.85
2023-04-17T09:29:14.832Z,4.95
2023-04-17T09:31:42.875Z,5.72
2023-04-17T09:34:14.086Z,5.55
2023-04-17T09:36:43.249Z,5.40
2023-04-17T09:39:21.232Z,6.40
2023-04-17T09:41:48.071Z,5.82
2023-04-17T09:44:28.195Z,6.30
2023-04-17T09:46:55.066Z,6.03
2023-04-17T09:49:42.454Z,6.53
2023-04-17T09:52:09.423Z,5.32
2023-04-17T09:54:38.335Z,5.50
2023-04-17T09:57:09.344Z,6.25
2023-04-17T09:59:49.107Z,5.20
2023-04-17T10:02:17.880Z,5.70
2023-04-17T10:04:46.373Z,5.53
2023-04-17T10:07:13.817Z,5.93
2023-04-17T10:09:41.897Z,5.53
2023-04-17T10:12:18.880Z,5.88
2023-04-17T10:14:48.623Z,5.75
2023-04-17T10:17:31.640Z,5.55
2023-04-17T10:20:23.317Z,4.43
2023-04-17T10:22:57.319Z,4.28
2023-04-17T10:25:25.218Z,4.30
2023-04-17T10:27:58.322Z,4.38
2023-04-17T10:30:26.850Z,4.38
2023-04-17T10:33:22.082Z,3.90
2023-04-17T10:35:48.952Z,4.15
2023-04-17T10:38:16.414Z,4.13
2023-04-17T10:40:44.178Z,4.65
2023-04-17T10:43:11.945Z,3.67
2023-04-17T10:45:58.381Z,3.40
2023-04-17T10:48:52.512Z,4.15
2023-04-17T10:51:23.478Z,3.60
2023-04-17T10:54:00.503Z,4.03
2023-04-17T10:56:40.049Z,3.80
2023-04-17T10:59:08.438Z,3.92
2023-04-17T11:01:41.911Z,4.43
2023-04-17T11:04:08.924Z,3.90
2023-04-17T11:06:43.178Z,3.53
2023-04-17T11:09:11.430Z,3.45
2023-04-17T11:11:44.489Z,3.47
2023-04-17T11:14:19.978Z,3.50
2023-04-17T11:16:49.061Z,3.45
2023-04-17T11:19:23.276Z,2.88
2023-04-17T11:21:52.284Z,3.92
2023-04-17T11:24:29.849Z,3.60
2023-04-17T11:26:59.753Z,4.20
2023-04-17T11:29:27.394Z,3.60
2023-04-17T11:31:56.335Z,3.38
2023-04-17T11:34:23.526Z,3.33
2023-04-17T11:36:56.263Z,3.40
2023-04-17T11:39:24.714Z,3.63
2023-04-17T11:41:52.012Z,3.63
2023-04-17T11:44:20.561Z,3.70
2023-04-17T11:46:54.945Z,3.65
2023-04-17T11:49:29.778Z,4.22
2023-04-17T11:52:00.324Z,4.25
2023-04-17T11:54:30.971Z,3.47
2023-04-17T11:57:04.685Z,3.67
2023-04-17T11:59:35.201Z,4.35
2023-04-17T12:02:02.557Z,3.83
2023-04-17T12:04:31.321Z,4.13
2023-04-17T12:07:02.925Z,3.65
2023-04-17T12:09:32.050Z,3.92
2023-04-17T12:11:59.660Z,4.30
2023-04-17T12:14:26.776Z,4.20
2023-04-17T12:16:53.695Z,3.97
2023-04-17T12:19:20.566Z,4.18
2023-04-17T12:21:50.013Z,4.07
2023-04-17T12:24:18.440Z,4.28
2023-04-17T12:26:48.823Z,4.63
2023-04-17T12:29:17.151Z,4.13
2023-04-17T12:31:45.063Z,3.92
2023-04-17T12:34:12.122Z,5.25
2023-04-17T12:36:39.125Z,4.35
2023-04-17T12:39:05.852Z,4.28
2023-04-17T12:41:32.518Z,4.85
2023-04-17T12:44:03.830Z,4.35
2023-04-17T12:46:31.003Z,4.22
2023-04-17T12:49:00.496Z,4.35
2023-04-17T12:51:30.573Z,4.18
2023-04-17T12:53:57.442Z,4.22
2023-04-17T12:56:24.204Z,3.70
2023-04-17T12:58:51.141Z,3.97
2023-04-17T13:01:17.824Z,4.15
2023-04-17T13:03:44.724Z,4.13
2023-04-17T13:06:11.598Z,4.07
2023-04-17T13:08:38.267Z,4.10
2023-04-17T13:11:05.252Z,3.75
2023-04-17T13:13:31.944Z,3.78
2023-04-17T13:15:58.849Z,4.18
2023-04-17T13:18:26.490Z,4.00
2023-04-17T13:20:53.118Z,3.45
2023-04-17T13:23:19.786Z,3.67
2023-04-17T13:25:47.263Z,3.47
2023-04-17T13:28:13.974Z,3.13
2023-04-17T13:30:40.691Z,3.33
2023-04-17T13:33:07.804Z,3.55
2023-04-17T13:35:34.759Z,3.20
2023-04-17T13:38:03.257Z,2.88
2023-04-17T13:40:31.203Z,3.20
2023-04-17T13:42:58.704Z,3.25
2023-04-17T13:45:25.624Z,3.28
2023-04-17T13:47:52.517Z,3.50
2023-04-17T13:50:19.298Z,3.90
2023-04-17T13:52:46.101Z,3.28
2023-04-17T13:55:14.777Z,3.20
2023-04-17T13:57:41.726Z,3.65
2023-04-17T14:00:09.224Z,3.72
2023-04-17T14:02:36.170Z,3.80
2023-04-17T14:05:03.298Z,3.97
2023-04-17T14:07:30.188Z,3.65
2023-04-17T14:09:56.801Z,3.63
2023-04-17T14:12:23.677Z,3.55
2023-04-17T14:14:50.383Z,3.55
2023-04-17T14:17:17.523Z,2.88
2023-04-17T14:19:44.606Z,3.78
2023-04-17T14:22:11.375Z,3.25
2023-04-17T14:24:38.041Z,3.08
2023-04-17T14:27:04.748Z,3.15
2023-04-17T14:29:31.385Z,3.45
2023-04-17T14:31:58.183Z,2.80
2023-04-17T14:34:25.094Z,3.22
2023-04-17T14:36:51.816Z,3.50
2023-04-17T14:39:19.764Z,2.97
2023-04-17T14:41:46.453Z,3.53
2023-04-17T14:44:13.517Z,3.67
2023-04-17T14:46:40.418Z,3.45
2023-04-17T14:49:07.151Z,3.40
2023-04-17T14:51:33.969Z,3.15
2023-04-17T14:54:00.720Z,3.75
2023-04-17T14:56:27.460Z,3.22
2023-04-17T14:58:54.136Z,3.70
2023-04-17T15:01:20.867Z,3.72
2023-04-17T15:03:48.673Z,4.00
2023-04-17T15:06:16.346Z,3.25
2023-04-17T15:08:43.303Z,3.40
2023-04-17T15:11:10.504Z,3.60
2023-04-17T15:13:37.515Z,3.65
2023-04-17T15:16:04.494Z,2.97
2023-04-17T15:18:31.404Z,3.17
2023-04-17T15:20:58.216Z,2.97
2023-04-17T15:23:26.759Z,2.85
2023-04-17T15:25:57.549Z,3.30
2023-04-17T15:28:25.603Z,3.47
2023-04-17T15:30:52.506Z,3.53
2023-04-17T15:33:19.717Z,3.10
2023-04-17T15:35:47.768Z,3.17
2023-04-17T15:38:14.959Z,3.08
2023-04-17T15:40:42.709Z,3.53
2023-04-17T15:43:10.774Z,3.40
2023-04-17T15:45:37.904Z,2.97
2023-04-17T15:48:04.781Z,3.17
2023-04-17T15:50:31.581Z,2.72
2023-04-17T15:52:58.363Z,2.60
2023-04-17T15:55:25.112Z,3.03
2023-04-17T15:57:52.860Z,3.08
2023-04-17T16:00:20.159Z,2.90
2023-04-17T16:02:48.137Z,2.67
2023-04-17T16:05:15.796Z,3.05
2023-04-17T16:07:42.656Z,2.50
2023-04-17T16:10:13.915Z,2.90
2023-04-17T16:12:44.592Z,2.50
2023-04-17T16:15:11.938Z,2.88
2023-04-17T16:17:38.983Z,2.58
2023-04-17T16:20:06.953Z,3.20
2023-04-17T16:22:33.783Z,2.92
2023-04-17T16:25:01.931Z,3.10
2023-04-17T16:27:29.282Z,3.05
2023-04-17T16:29:56.070Z,2.70
2023-04-17T16:32:24.662Z,2.83
2023-04-17T16:34:52.107Z,3.22
2023-04-17T16:37:18.988Z,3.15
2023-04-17T16:39:45.662Z,2.47
2023-04-17T16:42:12.354Z,2.60
2023-04-17T16:44:39.217Z,2.50
2023-04-17T16:47:13.218Z,2.17
2023-04-17T16:49:40.991Z,2.40
2023-04-17T16:52:07.696Z,2.30
2023-04-17T16:54:34.884Z,2.53
2023-04-17T16:57:01.746Z,2.35
2023-04-17T16:59:28.635Z,2.30
2023-04-17T17:01:55.450Z,2.42
2023-04-17T17:04:22.407Z,2.92
2023-04-17T17:06:49.314Z,2.15
2023-04-17T17:09:16.423Z,2.13
2023-04-17T17:11:43.122Z,2.25
2023-04-17T17:14:10.099Z,2.22
2023-04-17T17:16:36.933Z,2.53
2023-04-17T17:19:04.346Z,2.08
2023-04-17T17:21:31.435Z,2.17
2023-04-17T17:23:58.553Z,2.30
2023-04-17T17:26:25.389Z,2.13
2023-04-17T17:28:53.511Z,2.00
2023-04-17T17:31:20.717Z,1.77
2023-04-17T17:33:50.465Z,2.10
2023-04-17T17:36:17.421Z,2.40
2023-04-17T17:38:44.585Z,1.95
2023-04-17T17:41:11.310Z,2.15
2023-04-17T17:43:38.185Z,2.17
2023-04-17T17:46:04.924Z,1.50
2023-04-17T17:48:31.681Z,1.80
2023-04-17T17:50:58.329Z,2.38
2023-04-17T17:53:26.916Z,1.60
2023-04-17T17:55:55.241Z,1.75
2023-04-17T17:58:22.261Z,1.60
2023-04-17T18:00:49.712Z,1.70
2023-04-17T18:03:16.950Z,1.73
2023-04-17T18:05:44.105Z,1.65
2023-04-17T18:08:10.796Z,2.17
2023-04-17T18:10:37.540Z,1.70
2023-04-17T18:13:04.443Z,2.08
2023-04-17T18:15:31.226Z,1.70
2023-04-17T18:17:57.982Z,1.50
2023-04-17T18:20:24.683Z,1.45
2023-04-17T18:22:52.099Z,1.30
2023-04-17T18:25:19.097Z,1.40
2023-04-17T18:27:45.801Z,1.10
2023-04-17T18:30:13.061Z,1.48
2023-04-17T18:32:41.020Z,1.15
2023-04-17T18:35:08.169Z,1.20
2023-04-17T18:37:34.830Z,1.00
2023-04-17T18:40:01.703Z,1.42
2023-04-17T18:42:28.597Z,1.40
2023-04-17T18:44:55.402Z,1.38
2023-04-17T18:47:22.117Z,1.33
2023-04-17T18:49:52.272Z,1.75
2023-04-17T18:52:19.262Z,1.30
2023-04-17T18:54:46.055Z,1.80
2023-04-17T18:57:12.748Z,1.80
2023-04-17T18:59:40.517Z,1.77
2023-04-17T19:02:08.794Z,1.95
2023-04-17T19:04:35.524Z,1.80
2023-04-17T19:07:02.879Z,2.20
2023-04-17T19:09:29.580Z,2.75
2023-04-17T19:11:56.900Z,2.58
2023-04-17T19:14:23.777Z,2.45
2023-04-17T19:16:50.717Z,2.67
2023-04-17T19:19:17.714Z,2.70
2023-04-17T19:21:44.381Z,3.38
2023-04-17T19:24:11.108Z,2.90
2023-04-17T19:26:38.185Z,3.17
2023-04-17T19:29:05.256Z,3.08
2023-04-17T19:31:33.050Z,3.40
2023-04-17T19:34:00.548Z,3.00
2023-04-17T19:36:28.211Z,3.28
2023-04-17T19:38:55.918Z,3.83
2023-04-17T19:41:22.619Z,3.72
2023-04-17T19:43:51.291Z,3.58
2023-04-17T19:46:19.010Z,3.97
2023-04-17T19:48:46.369Z,4.32
2023-04-17T19:51:14.502Z,3.97
2023-04-17T19:53:42.326Z,4.40
2023-04-17T19:56:09.570Z,4.60
2023-04-17T19:58:36.759Z,4.70
2023-04-17T20:01:03.890Z,4.63
2023-04-17T20:03:31.913Z,4.65
2023-04-17T20:05:59.137Z,4.97
2023-04-17T20:08:29.187Z,5.20
2023-04-17T20:10:55.971Z,5.93
2023-04-17T20:13:22.776Z,5.60
2023-04-17T20:15:49.586Z,6.30
2023-04-17T20:18:17.883Z,6.75
2023-04-17T20:20:44.645Z,6.85
2023-04-17T20:23:11.591Z,7.78
2023-04-17T20:25:38.232Z,7.55
2023-04-17T20:28:05.287Z,7.88
2023-04-17T20:30:32.103Z,7.97
2023-04-17T20:32:58.899Z,9.65
2023-04-17T20:35:25.721Z,9.30
2023-04-17T20:37:52.538Z,9.38
2023-04-17T20:40:19.593Z,8.52
2023-04-17T20:42:46.857Z,9.55
2023-04-17T20:45:13.736Z,8.50
2023-04-17T20:47:55.412Z,9.52
2023-04-17T20:50:23.604Z,8.60
2023-04-17T20:52:50.347Z,8.65
2023-04-17T20:55:18.905Z,8.27
2023-04-17T20:57:46.103Z,9.48
2023-04-17T21:00:13.113Z,8.55
2023-04-17T21:02:40.010Z,8.73
2023-04-17T21:05:07.394Z,9.02
2023-04-17T21:07:34.413Z,8.73
2023-04-17T21:10:01.234Z,8.55
2023-04-17T21:12:28.244Z,8.55
2023-04-17T21:14:55.253Z,8.68
2023-04-17T21:17:21.974Z,8.95
2023-04-17T21:19:49.474Z,9.60
2023-04-17T21:22:16.449Z,9.55
2023-04-17T21:24:43.218Z,9.27
2023-04-17T21:27:10.541Z,9.45
2023-04-17T21:29:37.606Z,9.88
2023-04-17T21:32:04.503Z,10.68
2023-04-17T21:34:31.320Z,10.10
2023-04-17T21:37:01.398Z,11.15
2023-04-17T21:39:28.056Z,10.70
2023-04-17T21:41:54.720Z,9.95
2023-04-17T21:44:21.521Z,10.63
2023-04-17T21:46:48.306Z,11.25
2023-04-17T21:49:15.047Z,11.07
2023-04-17T21:51:41.791Z,11.43
2023-04-17T21:54:09.155Z,10.68
2023-04-17T21:56:36.319Z,10.90
2023-04-17T21:59:03.786Z,11.48
2023-04-17T22:01:30.634Z,11.48
2023-04-17T22:03:57.468Z,12.25
2023-04-17T22:06:24.295Z,12.32
2023-04-17T22:08:50.973Z,11.38
2023-04-17T22:11:17.695Z,11.48
2023-04-17T22:13:45.237Z,11.63
2023-04-17T22:16:12.101Z,11.98
2023-04-17T22:18:39.522Z,11.32
2023-04-17T22:21:06.401Z,11.88
2023-04-17T22:23:33.092Z,10.75
2023-04-17T22:25:59.736Z,11.93
2023-04-17T22:28:30.121Z,11.98
2023-04-17T22:30:57.888Z,11.75
2023-04-17T22:33:24.733Z,12.65
2023-04-17T22:35:51.343Z,11.35
2023-04-17T22:38:19.423Z,10.95
2023-04-17T22:40:46.090Z,11.07
2023-04-17T22:43:12.778Z,11.65
2023-04-17T22:45:39.432Z,12.32
2023-04-17T22:48:06.560Z,11.50
2023-04-17T22:50:33.235Z,11.98
2023-04-17T22:52:59.884Z,10.90
2023-04-17T22:55:26.661Z,11.68
2023-04-17T22:57:53.407Z,11.98
2023-04-17T23:00:20.311Z,12.02
2023-04-17T23:02:47.456Z,11.25
2023-04-17T23:05:14.451Z,11.40
2023-04-17T23:07:41.353Z,11.60
2023-04-17T23:10:08.391Z,11.68
2023-04-17T23:12:35.069Z,12.00
2023-04-17T23:15:01.813Z,11.48
2023-04-17T23:17:28.516Z,11.13
2023-04-17T23:19:55.726Z,12.00
2023-04-17T23:22:22.565Z,12.25
2023-04-17T23:24:49.280Z,11.60
2023-04-17T23:27:15.957Z,12.20
2023-04-17T23:29:42.597Z,12.60
2023-04-17T23:32:09.467Z,12.77
2023-04-17T23:34:36.173Z,12.13
2023-04-17T23:37:03.420Z,12.27
2023-04-17T23:39:30.075Z,12.13
2023-04-17T23:41:57.725Z,12.30
2023-04-17T23:44:24.414Z,10.85
2023-04-17T23:46:51.459Z,12.15
2023-04-17T23:49:18.204Z,12.55
2023-04-17T23:51:45.075Z,12.35
2023-04-17T23:54:12.429Z,12.35
2023-04-17T23:56:39.255Z,12.18
2023-04-17T23:59:05.979Z,12.90
